sensor_id;sensor_type;location;lat;lon;timestamp;temperature;humidity
14670;DHT22;7423;48.722;9.350;2023-06-10T00:02:21;21.90;94.30
14670;DHT22;7423;48.722;9.350;2023-06-10T00:04:48;21.80;93.80
14670;DHT22;7423;48.722;9.350;2023-06-10T00:07:15;21.80;93.50
14670;DHT22;7423;48.722;9.350;2023-06-10T00:09:42;21.70;93.40
14670;DHT22;7423;48.722;9.350;2023-06-10T00:12:09;21.70;93.50
14670;DHT22;7423;48.722;9.350;2023-06-10T00:14:40;21.70;93.80
14670;DHT22;7423;48.722;9.350;2023-06-10T00:17:07;21.70;93.80
14670;DHT22;7423;48.722;9.350;2023-06-10T00:19:38;21.70;94.00
14670;DHT22;7423;48.722;9.350;2023-06-10T00:22:07;21.60;94.00
14670;DHT22;7423;48.722;9.350;2023-06-10T00:24:36;21.60;94.20
14670;DHT22;7423;48.722;9.350;2023-06-10T00:27:03;21.70;94.30
14670;DHT22;7423;48.722;9.350;2023-06-10T00:29:30;21.50;94.50
14670;DHT22;7423;48.722;9.350;2023-06-10T00:31:56;21.60;94.70
14670;DHT22;7423;48.722;9.350;2023-06-10T00:34:24;21.50;94.70
14670;DHT22;7423;48.722;9.350;2023-06-10T00:36:51;21.50;94.60
14670;DHT22;7423;48.722;9.350;2023-06-10T00:39:18;21.50;94.80
14670;DHT22;7423;48.722;9.350;2023-06-10T00:41:46;21.50;94.90
14670;DHT22;7423;48.722;9.350;2023-06-10T00:44:13;21.50;94.90
14670;DHT22;7423;48.722;9.350;2023-06-10T00:46:40;21.40;94.80
14670;DHT22;7423;48.722;9.350;2023-06-10T00:49:07;21.30;94.90
14670;DHT22;7423;48.722;9.350;2023-06-10T00:51:35;21.30;94.80
14670;DHT22;7423;48.722;9.350;2023-06-10T00:54:03;21.30;94.80
14670;DHT22;7423;48.722;9.350;2023-06-10T00:56:31;21.20;94.90
14670;DHT22;7423;48.722;9.350;2023-06-10T00:58:59;21.20;94.90
14670;DHT22;7423;48.722;9.350;2023-06-10T01:01:26;21.20;94.90
14670;DHT22;7423;48.722;9.350;2023-06-10T01:04:04;21.20;95.00
14670;DHT22;7423;48.722;9.350;2023-06-10T01:06:51;21.10;95.10
14670;DHT22;7423;48.722;9.350;2023-06-10T01:13:00;21.00;95.10
14670;DHT22;7423;48.722;9.350;2023-06-10T01:15:45;21.00;95.10
14670;DHT22;7423;48.722;9.350;2023-06-10T01:18:13;21.00;95.30
14670;DHT22;7423;48.722;9.350;2023-06-10T01:20:43;21.00;95.30
14670;DHT22;7423;48.722;9.350;2023-06-10T01:23:12;20.90;95.40
14670;DHT22;7423;48.722;9.350;2023-06-10T01:25:41;20.90;95.40
14670;DHT22;7423;48.722;9.350;2023-06-10T01:28:41;20.90;95.40
14670;DHT22;7423;48.722;9.350;2023-06-10T01:31:42;20.90;95.50
14670;DHT22;7423;48.722;9.350;2023-06-10T01:34:14;20.80;95.60
14670;DHT22;7423;48.722;9.350;2023-06-10T01:36:48;20.70;96.00
14670;DHT22;7423;48.722;9.350;2023-06-10T01:39:18;20.70;96.00
14670;DHT22;7423;48.722;9.350;2023-06-10T01:41:48;20.70;96.10
14670;DHT22;7423;48.722;9.350;2023-06-10T01:44:20;20.70;96.20
14670;DHT22;7423;48.722;9.350;2023-06-10T01:46:48;20.50;96.10
14670;DHT22;7423;48.722;9.350;2023-06-10T01:49:16;20.50;96.10
14670;DHT22;7423;48.722;9.350;2023-06-10T01:51:42;20.50;96.10
14670;DHT22;7423;48.722;9.350;2023-06-10T01:54:09;20.50;96.20
14670;DHT22;7423;48.722;9.350;2023-06-10T01:56:37;20.40;96.20
14670;DHT22;7423;48.722;9.350;2023-06-10T01:59:03;20.40;96.30
14670;DHT22;7423;48.722;9.350;2023-06-10T02:01:30;20.30;96.40
14670;DHT22;7423;48.722;9.350;2023-06-10T02:03:57;20.30;96.60
14670;DHT22;7423;48.722;9.350;2023-06-10T02:06:24;20.20;96.60
14670;DHT22;7423;48.722;9.350;2023-06-10T02:08:51;20.20;96.70
14670;DHT22;7423;48.722;9.350;2023-06-10T02:11:18;20.20;96.80
14670;DHT22;7423;48.722;9.350;2023-06-10T02:13:45;20.20;97.10
14670;DHT22;7423;48.722;9.350;2023-06-10T02:16:12;20.20;96.70
14670;DHT22;7423;48.722;9.350;2023-06-10T02:18:41;20.10;96.80
14670;DHT22;7423;48.722;9.350;2023-06-10T02:21:09;20.10;96.70
14670;DHT22;7423;48.722;9.350;2023-06-10T02:23:37;20.00;96.70
14670;DHT22;7423;48.722;9.350;2023-06-10T02:26:04;20.00;96.80
14670;DHT22;7423;48.722;9.350;2023-06-10T02:28:31;20.00;96.90
14670;DHT22;7423;48.722;9.350;2023-06-10T02:30:58;19.90;96.90
14670;DHT22;7423;48.722;9.350;2023-06-10T02:33:25;20.00;97.00
14670;DHT22;7423;48.722;9.350;2023-06-10T02:35:55;20.00;97.00
14670;DHT22;7423;48.722;9.350;2023-06-10T02:38:22;19.90;97.20
14670;DHT22;7423;48.722;9.350;2023-06-10T02:40:49;19.80;97.50
14670;DHT22;7423;48.722;9.350;2023-06-10T02:43:16;19.80;97.40
14670;DHT22;7423;48.722;9.350;2023-06-10T02:45:43;19.80;97.40
14670;DHT22;7423;48.722;9.350;2023-06-10T02:48:09;19.80;97.50
14670;DHT22;7423;48.722;9.350;2023-06-10T02:50:36;19.80;97.50
14670;DHT22;7423;48.722;9.350;2023-06-10T02:53:05;19.70;97.50
14670;DHT22;7423;48.722;9.350;2023-06-10T02:55:32;19.70;97.70
14670;DHT22;7423;48.722;9.350;2023-06-10T02:57:59;19.60;97.70
14670;DHT22;7423;48.722;9.350;2023-06-10T03:00:27;19.60;97.80
14670;DHT22;7423;48.722;9.350;2023-06-10T03:02:54;19.50;97.60
14670;DHT22;7423;48.722;9.350;2023-06-10T03:05:24;19.50;97.80
14670;DHT22;7423;48.722;9.350;2023-06-10T03:07:51;19.40;97.70
14670;DHT22;7423;48.722;9.350;2023-06-10T03:10:18;19.50;97.80
14670;DHT22;7423;48.722;9.350;2023-06-10T03:12:45;19.40;98.00
14670;DHT22;7423;48.722;9.350;2023-06-10T03:15:12;19.40;98.00
14670;DHT22;7423;48.722;9.350;2023-06-10T03:17:39;19.40;98.10
14670;DHT22;7423;48.722;9.350;2023-06-10T03:20:06;19.30;98.00
14670;DHT22;7423;48.722;9.350;2023-06-10T03:22:36;19.30;98.10
14670;DHT22;7423;48.722;9.350;2023-06-10T03:25:05;19.30;98.20
14670;DHT22;7423;48.722;9.350;2023-06-10T03:27:33;19.30;98.20
14670;DHT22;7423;48.722;9.350;2023-06-10T03:29:59;19.20;98.20
14670;DHT22;7423;48.722;9.350;2023-06-10T03:32:26;19.20;98.20
14670;DHT22;7423;48.722;9.350;2023-06-10T03:34:53;19.20;98.20
14670;DHT22;7423;48.722;9.350;2023-06-10T03:37:24;19.60;98.40
14670;DHT22;7423;48.722;9.350;2023-06-10T03:39:51;19.10;98.30
14670;DHT22;7423;48.722;9.350;2023-06-10T03:42:19;19.10;98.40
14670;DHT22;7423;48.722;9.350;2023-06-10T03:44:45;19.10;98.60
14670;DHT22;7423;48.722;9.350;2023-06-10T03:47:12;19.00;98.90
14670;DHT22;7423;48.722;9.350;2023-06-10T03:49:39;19.10;99.00
14670;DHT22;7423;48.722;9.350;2023-06-10T03:52:07;19.10;99.00
14670;DHT22;7423;48.722;9.350;2023-06-10T03:54:34;19.00;99.00
14670;DHT22;7423;48.722;9.350;2023-06-10T03:57:01;19.00;99.50
14670;DHT22;7423;48.722;9.350;2023-06-10T03:59:29;19.00;99.20
14670;DHT22;7423;48.722;9.350;2023-06-10T04:01:55;19.00;99.20
14670;DHT22;7423;48.722;9.350;2023-06-10T04:04:23;19.00;99.00
14670;DHT22;7423;48.722;9.350;2023-06-10T04:06:50;19.00;99.00
14670;DHT22;7423;48.722;9.350;2023-06-10T04:09:17;19.00;99.00
14670;DHT22;7423;48.722;9.350;2023-06-10T04:11:44;19.00;99.10
14670;DHT22;7423;48.722;9.350;2023-06-10T04:14:11;19.00;99.20
14670;DHT22;7423;48.722;9.350;2023-06-10T04:16:37;19.00;99.20
14670;DHT22;7423;48.722;9.350;2023-06-10T04:19:05;19.10;99.20
14670;DHT22;7423;48.722;9.350;2023-06-10T04:21:32;19.10;99.20
14670;DHT22;7423;48.722;9.350;2023-06-10T04:23:59;19.00;99.20
14670;DHT22;7423;48.722;9.350;2023-06-10T04:26:27;19.10;99.20
14670;DHT22;7423;48.722;9.350;2023-06-10T04:28:54;19.00;99.10
14670;DHT22;7423;48.722;9.350;2023-06-10T04:31:21;19.10;99.20
14670;DHT22;7423;48.722;9.350;2023-06-10T04:33:48;19.10;99.20
14670;DHT22;7423;48.722;9.350;2023-06-10T04:36:15;19.10;99.20
14670;DHT22;7423;48.722;9.350;2023-06-10T04:38:41;19.10;99.30
14670;DHT22;7423;48.722;9.350;2023-06-10T04:41:09;19.20;99.20
14670;DHT22;7423;48.722;9.350;2023-06-10T04:43:35;19.20;99.30
14670;DHT22;7423;48.722;9.350;2023-06-10T04:46:03;19.20;99.20
14670;DHT22;7423;48.722;9.350;2023-06-10T04:48:33;19.20;99.20
14670;DHT22;7423;48.722;9.350;2023-06-10T04:51:01;19.30;99.20
14670;DHT22;7423;48.722;9.350;2023-06-10T04:53:28;19.30;99.20
14670;DHT22;7423;48.722;9.350;2023-06-10T04:55:56;19.40;99.30
14670;DHT22;7423;48.722;9.350;2023-06-10T04:58:24;19.40;99.30
14670;DHT22;7423;48.722;9.350;2023-06-10T05:00:51;19.40;99.20
14670;DHT22;7423;48.722;9.350;2023-06-10T05:03:17;19.40;99.30
14670;DHT22;7423;48.722;9.350;2023-06-10T05:05:45;19.50;99.20
14670;DHT22;7423;48.722;9.350;2023-06-10T05:08:12;19.50;99.20
14670;DHT22;7423;48.722;9.350;2023-06-10T05:10:38;19.50;99.30
14670;DHT22;7423;48.722;9.350;2023-06-10T05:13:05;19.50;99.40
14670;DHT22;7423;48.722;9.350;2023-06-10T05:15:32;19.50;99.40
14670;DHT22;7423;48.722;9.350;2023-06-10T05:17:59;19.50;99.40
14670;DHT22;7423;48.722;9.350;2023-06-10T05:20:29;19.50;99.20
14670;DHT22;7423;48.722;9.350;2023-06-10T05:22:56;19.50;99.20
14670;DHT22;7423;48.722;9.350;2023-06-10T05:25:23;19.60;99.20
14670;DHT22;7423;48.722;9.350;2023-06-10T05:27:50;19.60;99.10
14670;DHT22;7423;48.722;9.350;2023-06-10T05:30:16;19.60;99.20
14670;DHT22;7423;48.722;9.350;2023-06-10T05:32:45;19.70;99.10
14670;DHT22;7423;48.722;9.350;2023-06-10T05:35:12;19.70;99.40
14670;DHT22;7423;48.722;9.350;2023-06-10T05:37:39;19.80;99.20
14670;DHT22;7423;48.722;9.350;2023-06-10T05:40:06;19.80;99.10
14670;DHT22;7423;48.722;9.350;2023-06-10T05:42:34;19.80;99.10
14670;DHT22;7423;48.722;9.350;2023-06-10T05:45:01;19.80;99.00
14670;DHT22;7423;48.722;9.350;2023-06-10T05:47:29;19.90;99.00
14670;DHT22;7423;48.722;9.350;2023-06-10T05:49:56;19.90;99.00
14670;DHT22;7423;48.722;9.350;2023-06-10T05:52:23;20.00;98.90
14670;DHT22;7423;48.722;9.350;2023-06-10T05:54:50;20.10;98.70
14670;DHT22;7423;48.722;9.350;2023-06-10T05:57:17;20.10;98.50
14670;DHT22;7423;48.722;9.350;2023-06-10T05:59:44;20.10;98.40
14670;DHT22;7423;48.722;9.350;2023-06-10T06:02:11;20.20;98.30
14670;DHT22;7423;48.722;9.350;2023-06-10T06:04:37;20.20;98.30
14670;DHT22;7423;48.722;9.350;2023-06-10T06:07:05;20.20;98.20
14670;DHT22;7423;48.722;9.350;2023-06-10T06:09:32;20.30;98.20
14670;DHT22;7423;48.722;9.350;2023-06-10T06:11:59;20.30;98.10
14670;DHT22;7423;48.722;9.350;2023-06-10T06:14:26;20.30;98.20
14670;DHT22;7423;48.722;9.350;2023-06-10T06:16:53;20.40;98.20
14670;DHT22;7423;48.722;9.350;2023-06-10T06:19:20;20.40;98.30
14670;DHT22;7423;48.722;9.350;2023-06-10T06:21:47;20.50;98.70
14670;DHT22;7423;48.722;9.350;2023-06-10T06:24:15;20.50;98.40
14670;DHT22;7423;48.722;9.350;2023-06-10T06:26:42;20.60;98.20
14670;DHT22;7423;48.722;9.350;2023-06-10T06:29:09;20.60;98.10
14670;DHT22;7423;48.722;9.350;2023-06-10T06:31:36;20.60;98.10
14670;DHT22;7423;48.722;9.350;2023-06-10T06:34:03;20.60;98.20
14670;DHT22;7423;48.722;9.350;2023-06-10T06:36:30;20.70;98.20
14670;DHT22;7423;48.722;9.350;2023-06-10T06:38:57;20.80;98.70
14670;DHT22;7423;48.722;9.350;2023-06-10T06:41:28;20.90;98.50
14670;DHT22;7423;48.722;9.350;2023-06-10T06:43:55;20.80;98.50
14670;DHT22;7423;48.722;9.350;2023-06-10T06:46:22;20.90;98.50
14670;DHT22;7423;48.722;9.350;2023-06-10T06:48:49;20.90;98.50
14670;DHT22;7423;48.722;9.350;2023-06-10T06:51:16;21.00;98.70
14670;DHT22;7423;48.722;9.350;2023-06-10T06:53:43;21.20;98.70
14670;DHT22;7423;48.722;9.350;2023-06-10T06:56:12;21.20;98.40
14670;DHT22;7423;48.722;9.350;2023-06-10T06:58:39;21.20;98.80
14670;DHT22;7423;48.722;9.350;2023-06-10T07:01:06;21.30;98.80
14670;DHT22;7423;48.722;9.350;2023-06-10T07:03:33;21.30;98.80
14670;DHT22;7423;48.722;9.350;2023-06-10T07:06:00;21.30;98.70
14670;DHT22;7423;48.722;9.350;2023-06-10T07:08:27;21.40;98.80
14670;DHT22;7423;48.722;9.350;2023-06-10T07:10:54;21.40;98.80
14670;DHT22;7423;48.722;9.350;2023-06-10T07:13:21;21.50;99.00
14670;DHT22;7423;48.722;9.350;2023-06-10T07:15:48;21.50;98.80
14670;DHT22;7423;48.722;9.350;2023-06-10T07:18:16;21.50;98.90
14670;DHT22;7423;48.722;9.350;2023-06-10T07:20:44;21.60;98.80
14670;DHT22;7423;48.722;9.350;2023-06-10T07:23:11;21.70;98.60
14670;DHT22;7423;48.722;9.350;2023-06-10T07:25:38;21.80;98.50
14670;DHT22;7423;48.722;9.350;2023-06-10T07:28:05;21.80;98.50
14670;DHT22;7423;48.722;9.350;2023-06-10T07:30:32;21.80;98.40
14670;DHT22;7423;48.722;9.350;2023-06-10T07:32:59;21.90;98.30
14670;DHT22;7423;48.722;9.350;2023-06-10T07:35:26;21.90;98.20
14670;DHT22;7423;48.722;9.350;2023-06-10T07:37:53;22.00;98.10
14670;DHT22;7423;48.722;9.350;2023-06-10T07:40:20;22.00;98.10
14670;DHT22;7423;48.722;9.350;2023-06-10T07:42:47;22.10;97.90
14670;DHT22;7423;48.722;9.350;2023-06-10T07:45:14;22.10;97.90
14670;DHT22;7423;48.722;9.350;2023-06-10T07:47:42;22.20;98.00
14670;DHT22;7423;48.722;9.350;2023-06-10T07:50:09;22.20;97.90
14670;DHT22;7423;48.722;9.350;2023-06-10T07:52:36;22.20;97.90
14670;DHT22;7423;48.722;9.350;2023-06-10T07:55:04;22.30;97.80
14670;DHT22;7423;48.722;9.350;2023-06-10T07:57:31;22.40;97.70
14670;DHT22;7423;48.722;9.350;2023-06-10T08:00:02;22.40;97.60
14670;DHT22;7423;48.722;9.350;2023-06-10T08:02:31;22.40;97.50
14670;DHT22;7423;48.722;9.350;2023-06-10T08:04:58;22.50;97.40
14670;DHT22;7423;48.722;9.350;2023-06-10T08:07:25;22.40;97.40
14670;DHT22;7423;48.722;9.350;2023-06-10T08:09:52;22.50;97.40
14670;DHT22;7423;48.722;9.350;2023-06-10T08:12:19;22.60;97.40
14670;DHT22;7423;48.722;9.350;2023-06-10T08:14:46;22.70;97.50
14670;DHT22;7423;48.722;9.350;2023-06-10T08:17:13;22.80;97.40
14670;DHT22;7423;48.722;9.350;2023-06-10T08:19:40;22.90;97.20
14670;DHT22;7423;48.722;9.350;2023-06-10T08:22:07;22.90;97.00
14670;DHT22;7423;48.722;9.350;2023-06-10T08:24:34;23.00;97.10
14670;DHT22;7423;48.722;9.350;2023-06-10T08:27:01;23.00;97.10
14670;DHT22;7423;48.722;9.350;2023-06-10T08:29:28;23.00;97.00
14670;DHT22;7423;48.722;9.350;2023-06-10T08:31:55;23.00;96.90
14670;DHT22;7423;48.722;9.350;2023-06-10T08:34:23;23.00;96.70
14670;DHT22;7423;48.722;9.350;2023-06-10T08:36:50;23.20;96.50
14670;DHT22;7423;48.722;9.350;2023-06-10T08:39:19;23.10;96.40
14670;DHT22;7423;48.722;9.350;2023-06-10T08:42:04;23.30;96.50
14670;DHT22;7423;48.722;9.350;2023-06-10T08:44:35;23.30;96.40
14670;DHT22;7423;48.722;9.350;2023-06-10T08:47:15;23.30;96.20
14670;DHT22;7423;48.722;9.350;2023-06-10T08:49:46;23.40;96.10
14670;DHT22;7423;48.722;9.350;2023-06-10T08:52:16;23.50;95.90
14670;DHT22;7423;48.722;9.350;2023-06-10T08:54:51;23.50;96.00
14670;DHT22;7423;48.722;9.350;2023-06-10T08:57:24;23.70;95.80
14670;DHT22;7423;48.722;9.350;2023-06-10T08:59:55;23.70;95.80
14670;DHT22;7423;48.722;9.350;2023-06-10T09:02:40;23.80;95.40
14670;DHT22;7423;48.722;9.350;2023-06-10T09:05:39;23.90;95.70
14670;DHT22;7423;48.722;9.350;2023-06-10T09:08:10;23.90;95.30
14670;DHT22;7423;48.722;9.350;2023-06-10T09:10:37;24.10;95.10
14670;DHT22;7423;48.722;9.350;2023-06-10T09:13:05;24.10;95.20
14670;DHT22;7423;48.722;9.350;2023-06-10T09:15:32;24.20;95.20
14670;DHT22;7423;48.722;9.350;2023-06-10T09:18:00;24.20;95.10
14670;DHT22;7423;48.722;9.350;2023-06-10T09:20:29;24.30;95.00
14670;DHT22;7423;48.722;9.350;2023-06-10T09:22:56;24.30;95.00
14670;DHT22;7423;48.722;9.350;2023-06-10T09:25:38;24.30;94.80
14670;DHT22;7423;48.722;9.350;2023-06-10T09:28:13;24.40;94.50
14670;DHT22;7423;48.722;9.350;2023-06-10T09:30:43;24.30;94.40
14670;DHT22;7423;48.722;9.350;2023-06-10T09:33:13;24.40;94.40
14670;DHT22;7423;48.722;9.350;2023-06-10T09:35:48;24.50;94.50
14670;DHT22;7423;48.722;9.350;2023-06-10T09:38:20;24.50;94.40
14670;DHT22;7423;48.722;9.350;2023-06-10T09:40:53;24.50;94.20
14670;DHT22;7423;48.722;9.350;2023-06-10T09:43:21;24.60;94.60
14670;DHT22;7423;48.722;9.350;2023-06-10T09:45:51;24.60;94.10
14670;DHT22;7423;48.722;9.350;2023-06-10T09:48:21;24.80;93.90
14670;DHT22;7423;48.722;9.350;2023-06-10T09:50:50;24.80;93.80
14670;DHT22;7423;48.722;9.350;2023-06-10T09:53:17;24.90;93.80
14670;DHT22;7423;48.722;9.350;2023-06-10T09:55:45;24.90;93.80
14670;DHT22;7423;48.722;9.350;2023-06-10T09:58:13;24.90;93.70
14670;DHT22;7423;48.722;9.350;2023-06-10T10:00:40;25.00;93.60
14670;DHT22;7423;48.722;9.350;2023-06-10T10:03:07;25.00;93.40
14670;DHT22;7423;48.722;9.350;2023-06-10T10:05:34;25.10;93.00
14670;DHT22;7423;48.722;9.350;2023-06-10T10:08:02;25.20;92.70
14670;DHT22;7423;48.722;9.350;2023-06-10T10:10:29;25.20;92.40
14670;DHT22;7423;48.722;9.350;2023-06-10T10:12:56;25.30;92.60
14670;DHT22;7423;48.722;9.350;2023-06-10T10:15:29;25.30;92.60
14670;DHT22;7423;48.722;9.350;2023-06-10T10:18:11;25.30;92.60
14670;DHT22;7423;48.722;9.350;2023-06-10T10:20:50;25.30;92.50
14670;DHT22;7423;48.722;9.350;2023-06-10T10:23:29;25.30;92.30
14670;DHT22;7423;48.722;9.350;2023-06-10T10:26:04;25.40;92.30
14670;DHT22;7423;48.722;9.350;2023-06-10T10:28:48;25.50;92.30
14670;DHT22;7423;48.722;9.350;2023-06-10T10:31:21;25.50;92.10
14670;DHT22;7423;48.722;9.350;2023-06-10T10:33:57;25.60;92.00
14670;DHT22;7423;48.722;9.350;2023-06-10T10:36:27;25.60;91.60
14670;DHT22;7423;48.722;9.350;2023-06-10T10:38:57;25.70;91.40
14670;DHT22;7423;48.722;9.350;2023-06-10T10:41:26;25.70;91.10
14670;DHT22;7423;48.722;9.350;2023-06-10T10:43:54;25.80;90.90
14670;DHT22;7423;48.722;9.350;2023-06-10T10:46:23;25.80;90.90
14670;DHT22;7423;48.722;9.350;2023-06-10T10:48:54;25.90;90.80
14670;DHT22;7423;48.722;9.350;2023-06-10T10:51:23;25.90;90.90
14670;DHT22;7423;48.722;9.350;2023-06-10T10:54:10;26.00;90.90
14670;DHT22;7423;48.722;9.350;2023-06-10T10:59:53;26.00;90.00
14670;DHT22;7423;48.722;9.350;2023-06-10T11:05:06;26.10;89.40
14670;DHT22;7423;48.722;9.350;2023-06-10T11:07:35;26.20;89.50
14670;DHT22;7423;48.722;9.350;2023-06-10T11:15:12;26.30;87.80
14670;DHT22;7423;48.722;9.350;2023-06-10T11:18:12;26.40;88.00
14670;DHT22;7423;48.722;9.350;2023-06-10T11:20:55;26.40;88.30
14670;DHT22;7423;48.722;9.350;2023-06-10T11:26:33;26.40;88.50
14670;DHT22;7423;48.722;9.350;2023-06-10T11:29:03;26.50;88.30
14670;DHT22;7423;48.722;9.350;2023-06-10T11:34:10;26.50;88.90
14670;DHT22;7423;48.722;9.350;2023-06-10T11:36:42;26.60;89.40
14670;DHT22;7423;48.722;9.350;2023-06-10T11:39:12;26.60;89.00
14670;DHT22;7423;48.722;9.350;2023-06-10T11:41:39;26.60;88.10
14670;DHT22;7423;48.722;9.350;2023-06-10T11:44:11;26.70;88.40
14670;DHT22;7423;48.722;9.350;2023-06-10T11:46:45;26.70;88.40
14670;DHT22;7423;48.722;9.350;2023-06-10T11:49:12;26.80;89.00
14670;DHT22;7423;48.722;9.350;2023-06-10T11:51:40;26.90;85.60
14670;DHT22;7423;48.722;9.350;2023-06-10T11:54:10;27.00;85.80
14670;DHT22;7423;48.722;9.350;2023-06-10T11:56:37;27.00;86.00
14670;DHT22;7423;48.722;9.350;2023-06-10T11:59:05;26.90;86.40
14670;DHT22;7423;48.722;9.350;2023-06-10T12:01:36;26.90;86.90
14670;DHT22;7423;48.722;9.350;2023-06-10T12:04:12;27.00;87.40
14670;DHT22;7423;48.722;9.350;2023-06-10T12:06:45;27.00;87.50
14670;DHT22;7423;48.722;9.350;2023-06-10T12:09:29;27.20;87.50
14670;DHT22;7423;48.722;9.350;2023-06-10T12:12:04;27.30;87.30
14670;DHT22;7423;48.722;9.350;2023-06-10T12:14:57;27.40;87.10
14670;DHT22;7423;48.722;9.350;2023-06-10T12:20:01;27.50;86.60
14670;DHT22;7423;48.722;9.350;2023-06-10T12:22:37;27.50;86.70
14670;DHT22;7423;48.722;9.350;2023-06-10T12:25:06;27.50;86.70
14670;DHT22;7423;48.722;9.350;2023-06-10T12:27:35;27.60;87.00
14670;DHT22;7423;48.722;9.350;2023-06-10T12:30:04;27.70;86.70
14670;DHT22;7423;48.722;9.350;2023-06-10T12:35:07;27.80;85.80
14670;DHT22;7423;48.722;9.350;2023-06-10T12:37:36;27.80;85.30
14670;DHT22;7423;48.722;9.350;2023-06-10T12:40:08;27.90;84.60
14670;DHT22;7423;48.722;9.350;2023-06-10T12:42:37;28.00;84.40
14670;DHT22;7423;48.722;9.350;2023-06-10T12:45:04;28.00;84.20
14670;DHT22;7423;48.722;9.350;2023-06-10T12:47:37;28.00;84.50
14670;DHT22;7423;48.722;9.350;2023-06-10T12:50:06;28.00;83.90
14670;DHT22;7423;48.722;9.350;2023-06-10T12:52:34;28.00;83.40
14670;DHT22;7423;48.722;9.350;2023-06-10T12:55:01;27.90;83.00
14670;DHT22;7423;48.722;9.350;2023-06-10T12:57:28;28.00;82.00
14670;DHT22;7423;48.722;9.350;2023-06-10T12:59:56;28.10;80.90
14670;DHT22;7423;48.722;9.350;2023-06-10T13:02:23;28.30;81.10
14670;DHT22;7423;48.722;9.350;2023-06-10T13:04:51;28.30;81.00
14670;DHT22;7423;48.722;9.350;2023-06-10T13:07:18;28.30;80.60
14670;DHT22;7423;48.722;9.350;2023-06-10T13:09:45;28.30;81.20
14670;DHT22;7423;48.722;9.350;2023-06-10T13:12:15;28.30;81.00
14670;DHT22;7423;48.722;9.350;2023-06-10T13:14:52;28.20;81.10
14670;DHT22;7423;48.722;9.350;2023-06-10T13:17:20;28.20;80.60
14670;DHT22;7423;48.722;9.350;2023-06-10T13:19:50;28.20;80.70
14670;DHT22;7423;48.722;9.350;2023-06-10T13:22:16;28.30;80.40
14670;DHT22;7423;48.722;9.350;2023-06-10T13:24:46;28.30;80.40
14670;DHT22;7423;48.722;9.350;2023-06-10T13:27:13;28.30;80.40
14670;DHT22;7423;48.722;9.350;2023-06-10T13:29:43;28.30;80.30
14670;DHT22;7423;48.722;9.350;2023-06-10T13:32:10;28.20;80.10
14670;DHT22;7423;48.722;9.350;2023-06-10T13:34:36;28.10;80.50
14670;DHT22;7423;48.722;9.350;2023-06-10T13:37:04;28.20;81.00
14670;DHT22;7423;48.722;9.350;2023-06-10T13:39:31;28.20;81.30
14670;DHT22;7423;48.722;9.350;2023-06-10T13:41:58;28.20;81.10
14670;DHT22;7423;48.722;9.350;2023-06-10T13:44:25;28.40;80.90
14670;DHT22;7423;48.722;9.350;2023-06-10T13:46:52;28.40;81.10
14670;DHT22;7423;48.722;9.350;2023-06-10T13:49:19;28.40;81.60
14670;DHT22;7423;48.722;9.350;2023-06-10T13:51:46;28.40;82.90
14670;DHT22;7423;48.722;9.350;2023-06-10T13:54:13;28.40;81.20
14670;DHT22;7423;48.722;9.350;2023-06-10T13:56:42;28.30;80.60
14670;DHT22;7423;48.722;9.350;2023-06-10T13:59:09;28.40;80.40
14670;DHT22;7423;48.722;9.350;2023-06-10T14:01:36;28.40;80.50
14670;DHT22;7423;48.722;9.350;2023-06-10T14:04:03;28.40;80.40
14670;DHT22;7423;48.722;9.350;2023-06-10T14:06:30;28.40;80.40
14670;DHT22;7423;48.722;9.350;2023-06-10T14:09:02;28.40;79.90
14670;DHT22;7423;48.722;9.350;2023-06-10T14:11:29;28.50;79.70
14670;DHT22;7423;48.722;9.350;2023-06-10T14:14:00;28.60;79.80
14670;DHT22;7423;48.722;9.350;2023-06-10T14:16:27;28.60;80.00
14670;DHT22;7423;48.722;9.350;2023-06-10T14:18:54;28.70;80.40
14670;DHT22;7423;48.722;9.350;2023-06-10T14:21:21;28.70;80.90
14670;DHT22;7423;48.722;9.350;2023-06-10T14:23:48;28.70;81.10
14670;DHT22;7423;48.722;9.350;2023-06-10T14:26:16;28.70;81.20
14670;DHT22;7423;48.722;9.350;2023-06-10T14:28:43;28.70;80.90
14670;DHT22;7423;48.722;9.350;2023-06-10T14:31:10;28.70;80.70
14670;DHT22;7423;48.722;9.350;2023-06-10T14:33:37;28.70;80.90
14670;DHT22;7423;48.722;9.350;2023-06-10T14:36:04;28.70;81.20
14670;DHT22;7423;48.722;9.350;2023-06-10T14:38:32;28.70;80.50
14670;DHT22;7423;48.722;9.350;2023-06-10T14:40:58;28.60;80.30
14670;DHT22;7423;48.722;9.350;2023-06-10T14:43:26;28.60;79.80
14670;DHT22;7423;48.722;9.350;2023-06-10T14:45:53;28.70;79.40
14670;DHT22;7423;48.722;9.350;2023-06-10T14:48:22;28.70;79.30
14670;DHT22;7423;48.722;9.350;2023-06-10T14:50:51;28.70;80.90
14670;DHT22;7423;48.722;9.350;2023-06-10T14:53:18;28.70;80.80
14670;DHT22;7423;48.722;9.350;2023-06-10T14:55:47;28.80;80.70
14670;DHT22;7423;48.722;9.350;2023-06-10T14:58:18;28.80;80.70
14670;DHT22;7423;48.722;9.350;2023-06-10T15:00:47;28.90;80.70
14670;DHT22;7423;48.722;9.350;2023-06-10T15:03:15;28.90;80.20
14670;DHT22;7423;48.722;9.350;2023-06-10T15:05:42;28.80;80.60
14670;DHT22;7423;48.722;9.350;2023-06-10T15:08:09;28.80;81.50
14670;DHT22;7423;48.722;9.350;2023-06-10T15:10:36;28.80;80.70
14670;DHT22;7423;48.722;9.350;2023-06-10T15:13:03;28.70;80.00
14670;DHT22;7423;48.722;9.350;2023-06-10T15:15:30;28.80;80.20
14670;DHT22;7423;48.722;9.350;2023-06-10T15:17:57;28.80;80.20
14670;DHT22;7423;48.722;9.350;2023-06-10T15:20:24;28.80;79.90
14670;DHT22;7423;48.722;9.350;2023-06-10T15:22:51;28.80;79.80
14670;DHT22;7423;48.722;9.350;2023-06-10T15:25:18;28.80;79.00
14670;DHT22;7423;48.722;9.350;2023-06-10T15:27:56;28.80;78.70
14670;DHT22;7423;48.722;9.350;2023-06-10T15:30:23;28.80;79.60
14670;DHT22;7423;48.722;9.350;2023-06-10T15:32:50;28.70;79.90
14670;DHT22;7423;48.722;9.350;2023-06-10T15:35:17;28.80;79.80
14670;DHT22;7423;48.722;9.350;2023-06-10T15:37:45;28.80;80.60
14670;DHT22;7423;48.722;9.350;2023-06-10T15:40:11;28.80;79.60
14670;DHT22;7423;48.722;9.350;2023-06-10T15:42:38;28.90;79.20
14670;DHT22;7423;48.722;9.350;2023-06-10T15:45:06;28.90;78.80
14670;DHT22;7423;48.722;9.350;2023-06-10T15:47:33;28.90;78.00
14670;DHT22;7423;48.722;9.350;2023-06-10T15:50:00;29.00;78.00
14670;DHT22;7423;48.722;9.350;2023-06-10T15:52:27;29.10;77.70
14670;DHT22;7423;48.722;9.350;2023-06-10T15:54:54;29.00;77.70
14670;DHT22;7423;48.722;9.350;2023-06-10T15:57:21;29.00;77.90
14670;DHT22;7423;48.722;9.350;2023-06-10T15:59:52;29.10;77.90
14670;DHT22;7423;48.722;9.350;2023-06-10T16:02:19;29.00;77.60
14670;DHT22;7423;48.722;9.350;2023-06-10T16:04:46;29.10;77.60
14670;DHT22;7423;48.722;9.350;2023-06-10T16:07:13;29.10;77.60
14670;DHT22;7423;48.722;9.350;2023-06-10T16:09:40;29.10;77.80
14670;DHT22;7423;48.722;9.350;2023-06-10T16:12:07;29.20;77.60
14670;DHT22;7423;48.722;9.350;2023-06-10T16:14:34;29.10;77.60
14670;DHT22;7423;48.722;9.350;2023-06-10T16:17:01;29.20;76.80
14670;DHT22;7423;48.722;9.350;2023-06-10T16:19:29;29.10;76.50
14670;DHT22;7423;48.722;9.350;2023-06-10T16:21:56;29.10;76.30